Strona główna
METAR-TAF:

METAR-TAF

Lotnisko :

Passo Fundo, Rio Grande do Sul, Brazylia

Szerokość geograficzna: 28-15S, Długość geograficzna: 052-24W, wysokość: 684 m

Aktualna obserwacja pogody

Raport powstał 13 godziny i 11 minut temu, godzina 21:00 UTC
Wiatr 8 kt od południe
Temperatura 25°C
Wilgotność 50%
Ciśnienie 1017 hPa
Widzialność 10 km lub więcej
Brak chmur poniżej 1500 m i brak chmur cumulonimbus

METAR: SBPF 282100Z 18008KT CAVOK 25/14 Q1017

czas: 07:11 (10:11 UTC)


TAF: brakujący

Obserwacja i prognoza pogody dla ponad 4000 lotnisk (raport METAR i TAF).

Dostępne stacje oznaczono żółtymi i czerwonymi punktami na mapie.

Najedź kursorem aby zobaczyć nazwę stacji.

Kliknij aby zobaczyć obserwacje i prognozy pogody.

Aby zmienić mapę: kliknij na zielony przycisk z czarnym krzyżykiem, aby powiększyć; na zielony przycisk z myślnikiem, aby pomniejszyć; na zielone strzałki, aby przejść do map sąsiednich.


METAR-TAF: